Terminal Aerodrome Forecast
Issued by NWS

Home | Current Version | Previous Version | Text Only | Print | Product List | Glossary On
Versions: 1 2 3 4 5 6 7 8 9 10 11 12 13 14 15 16 17 18 19
000
FTUS46 KMTR 311126
TAFSNS
TAF
KSNS 311126Z 3112/0112 30003KT P6SM SKC
     FM311400 31003KT P6SM SCT007
     FM311600 31005KT P6SM SKC
     FM312100 29010KT P6SM SKC
     FM010400 29006KT P6SM SKC=

USA.gov is the U.S. government's official web portal to all federal, state and local government web resources and services.